Hlavní strana
METAR-TAF:

METAR-TAF

Letiště :

Salvador, Salvador

zeměpisná šířka: 13-26N, zeměpisná délka: 089-03W, výška: 25 m

Aktuální stav počasí

Zpráva byla vytvořena před 29 minutami, v 23:50 UTC
Severoseverovýchodní vítr 10 kt s nárazy do 20 kt, proměnlivý mezi severním a severovýchodním
Teplota 27°C
Vlhkost vzduchu 39%
Tlak 1013 hPa
Viditelnost 10 km a více
Žádná oblačnost pod 1500 m, nevyskytují se cumulonimby.

METAR: MSLP 172350Z 02010G20KT 350V050 CAVOK 27/12 Q1013 A2992 NOSIG

Čas: 18:19 (00:19 UTC)

Předpověď počasí

Zpráva byla vytvořena před 2 hodinami a 54 minutami, v 21:25 UTC
Předpověď platná od 18 v 00 UTC do 18 v 24 UTC
Severoseverovýchodní vítr 15 kt s nárazy do 35 kt
Viditelnost 10 km a více
Polojasno ve výšce 7000 ft

TAF: MSLP 172125Z 1800/1824 02015G35KT 9999 SCT070 TX33/1818Z TN24/1812Z

Stav a předpovědi počasí z více než 4 000 letišť (zprávy METAR a TAF).

Červené a žluté tečky na mapě představují dostupné meteorologické stanice.

Když kurzor umístíte na tečku, zobrazí se název stanice.

Pak kliknutím zobrazíte stav a předpověď počasí.

Chcete-li změnit mapu, kliknutím na zelené tlačítko se znaménkem +mapu přiblížíte, kliknutím na zelené tlačítko se znaménkem – mapu oddálíte a kliknutím na zelené šipky přejdete na sousední mapy.


METAR-TAF: